createdAt,value
2018-10-06T00:00:29.222Z,83.90
2018-10-06T00:03:02.936Z,84.00
2018-10-06T00:05:36.750Z,83.90
2018-10-06T00:08:10.617Z,84.00
2018-10-06T00:10:44.430Z,84.20
2018-10-06T00:13:18.496Z,84.30
2018-10-06T00:15:52.300Z,84.50
2018-10-06T00:18:26.723Z,84.60
2018-10-06T00:21:00.719Z,84.70
2018-10-06T00:23:34.877Z,84.60
2018-10-06T00:26:08.976Z,84.00
2018-10-06T00:28:42.944Z,83.30
2018-10-06T00:31:16.919Z,82.70
2018-10-06T00:33:50.835Z,82.50
2018-10-06T00:36:24.710Z,82.20
2018-10-06T00:38:58.863Z,82.30
2018-10-06T00:41:32.290Z,82.00
2018-10-06T00:44:06.612Z,82.70
2018-10-06T00:46:40.304Z,81.70
2018-10-06T00:49:14.246Z,81.20
2018-10-06T00:51:49.134Z,81.10
2018-10-06T00:54:23.331Z,80.20
2018-10-06T00:56:56.863Z,79.90
2018-10-06T00:59:30.622Z,80.20
2018-10-06T01:02:04.087Z,80.20
2018-10-06T01:04:38.586Z,79.60
2018-10-06T01:07:12.374Z,79.70
2018-10-06T01:09:46.376Z,78.80
2018-10-06T01:12:20.711Z,78.10
2018-10-06T01:14:54.828Z,78.40
2018-10-06T01:17:28.604Z,77.60
2018-10-06T01:20:02.799Z,76.90
2018-10-06T01:22:36.451Z,76.10
2018-10-06T01:25:10.006Z,76.20
2018-10-06T01:27:44.451Z,75.80
2018-10-06T01:30:18.289Z,76.80
2018-10-06T01:32:52.156Z,75.70
2018-10-06T01:35:25.838Z,75.50
2018-10-06T01:37:59.457Z,75.50
2018-10-06T01:40:33.593Z,76.40
2018-10-06T01:43:08.023Z,77.10
2018-10-06T01:45:41.963Z,77.30
2018-10-06T01:48:15.809Z,76.90
2018-10-06T01:50:50.337Z,76.80
2018-10-06T01:53:25.318Z,76.40
2018-10-06T01:55:59.191Z,75.80
2018-10-06T01:58:33.003Z,75.20
2018-10-06T02:01:06.972Z,74.20
2018-10-06T02:03:40.761Z,73.80
2018-10-06T02:06:14.818Z,73.30
2018-10-06T02:08:48.241Z,73.10
2018-10-06T02:11:21.884Z,73.30
2018-10-06T02:13:57.160Z,72.60
2018-10-06T02:16:31.673Z,71.70
2018-10-06T02:19:05.520Z,72.00
2018-10-06T02:21:39.140Z,71.70
2018-10-06T02:24:12.293Z,71.80
2018-10-06T02:26:46.257Z,72.50
2018-10-06T02:29:19.771Z,72.40
2018-10-06T02:31:54.006Z,71.90
2018-10-06T02:34:28.063Z,72.40
2018-10-06T02:37:03.963Z,72.90
2018-10-06T02:39:37.712Z,72.40
2018-10-06T02:42:11.530Z,71.40
2018-10-06T02:44:45.522Z,71.90
2018-10-06T02:47:19.469Z,70.90
2018-10-06T02:49:53.112Z,69.30
2018-10-06T02:52:26.866Z,68.70
2018-10-06T02:55:02.024Z,68.70
2018-10-06T02:57:35.506Z,68.80
2018-10-06T03:00:09.382Z,69.40
2018-10-06T03:02:43.309Z,69.20
2018-10-06T03:05:17.549Z,69.70
2018-10-06T03:07:56.766Z,70.00
2018-10-06T03:10:30.915Z,68.80
2018-10-06T03:13:04.522Z,69.20
2018-10-06T03:15:38.534Z,69.70
2018-10-06T03:18:12.108Z,69.60
2018-10-06T03:20:45.155Z,69.30
2018-10-06T03:23:18.999Z,69.10
2018-10-06T03:30:51.895Z,68.90
2018-10-06T03:33:25.917Z,68.90
2018-10-06T03:35:59.796Z,68.10
2018-10-06T03:38:33.077Z,68.70
2018-10-06T03:41:07.073Z,68.90
2018-10-06T03:43:41.812Z,69.00
2018-10-06T03:46:16.049Z,69.10
2018-10-06T03:51:59.454Z,69.10
2018-10-06T03:54:33.150Z,69.20
2018-10-06T03:57:08.090Z,69.30
2018-10-06T03:59:42.034Z,69.90
2018-10-06T04:02:15.857Z,69.00
2018-10-06T04:04:49.544Z,69.10
2018-10-06T04:07:23.288Z,69.00
2018-10-06T04:09:57.150Z,68.90
2018-10-06T04:12:31.095Z,68.40
2018-10-06T04:15:04.738Z,68.30
2018-10-06T04:17:38.780Z,68.20
2018-10-06T04:20:12.585Z,68.20
2018-10-06T04:22:46.659Z,67.90
2018-10-06T04:25:20.170Z,67.90
2018-10-06T04:27:54.485Z,67.90
2018-10-06T04:30:29.287Z,68.00
2018-10-06T04:33:03.092Z,67.90
2018-10-06T04:35:36.992Z,67.90
2018-10-06T04:38:10.679Z,67.90
2018-10-06T04:40:44.346Z,68.30
2018-10-06T04:43:17.975Z,68.40
2018-10-06T04:45:51.480Z,68.70
2018-10-06T04:48:25.169Z,68.80
2018-10-06T04:50:58.786Z,68.70
2018-10-06T04:53:32.424Z,68.40
2018-10-06T04:56:06.461Z,68.30
2018-10-06T04:58:40.631Z,68.00
2018-10-06T05:01:14.826Z,67.70
2018-10-06T05:03:48.638Z,67.50
2018-10-06T05:06:22.421Z,67.60
2018-10-06T05:08:56.671Z,67.60
2018-10-06T05:11:30.581Z,68.90
2018-10-06T05:14:04.512Z,68.80
2018-10-06T05:16:37.964Z,69.00
2018-10-06T05:19:11.891Z,69.10
2018-10-06T05:21:45.714Z,69.80
2018-10-06T05:24:19.223Z,69.70
2018-10-06T05:26:53.043Z,69.80
2018-10-06T05:29:26.456Z,69.60
2018-10-06T05:31:59.834Z,69.70
2018-10-06T05:34:33.882Z,69.60
2018-10-06T05:42:09.461Z,69.90
2018-10-06T05:44:44.023Z,70.10
2018-10-06T05:47:17.676Z,70.30
2018-10-06T05:49:51.159Z,71.30
2018-10-06T05:52:24.998Z,72.10
2018-10-06T05:59:53.966Z,73.60
2018-10-06T06:02:28.038Z,74.40
2018-10-06T06:05:01.898Z,74.90
2018-10-06T06:07:35.671Z,75.20
2018-10-06T06:10:09.661Z,75.50
2018-10-06T06:12:44.076Z,76.00
2018-10-06T06:15:17.506Z,76.20
2018-10-06T06:17:51.730Z,76.40
2018-10-06T06:20:25.477Z,76.60
2018-10-06T06:22:59.140Z,76.60
2018-10-06T06:25:32.682Z,76.30
2018-10-06T06:28:06.347Z,76.10
2018-10-06T06:30:40.292Z,76.00
2018-10-06T06:33:13.705Z,75.70
2018-10-06T06:35:47.587Z,75.50
2018-10-06T06:38:21.349Z,75.50
2018-10-06T06:40:55.461Z,75.40
2018-10-06T06:43:29.479Z,75.70
2018-10-06T06:46:03.574Z,76.20
2018-10-06T06:48:37.370Z,76.50
2018-10-06T06:54:15.484Z,76.40
2018-10-06T06:56:49.269Z,76.70
2018-10-06T06:59:22.932Z,77.10
2018-10-06T07:01:58.192Z,77.60
2018-10-06T07:04:32.300Z,78.00
2018-10-06T07:07:06.385Z,78.10
2018-10-06T07:09:39.925Z,77.80
2018-10-06T07:12:13.608Z,77.70
2018-10-06T07:14:48.192Z,77.60
2018-10-06T07:17:22.054Z,78.10
2018-10-06T07:19:55.671Z,78.50
2018-10-06T07:22:29.608Z,79.00
2018-10-06T07:25:03.443Z,79.10
2018-10-06T07:27:37.485Z,79.10
2018-10-06T07:30:11.777Z,78.90
2018-10-06T07:32:45.428Z,78.40
2018-10-06T07:35:18.933Z,78.00
2018-10-06T07:37:53.577Z,77.60
2018-10-06T07:40:27.862Z,78.40
2018-10-06T07:43:01.713Z,77.80
2018-10-06T07:45:35.589Z,77.60
2018-10-06T07:48:09.452Z,76.50
2018-10-06T07:50:43.293Z,76.20
2018-10-06T07:53:17.033Z,75.90
2018-10-06T07:55:50.686Z,75.80
2018-10-06T07:58:24.926Z,75.80
2018-10-06T08:05:58.382Z,75.40
2018-10-06T08:08:31.926Z,74.80
2018-10-06T08:11:05.522Z,74.50
2018-10-06T08:13:39.620Z,74.30
2018-10-06T08:16:13.681Z,74.10
2018-10-06T08:18:47.370Z,74.10
2018-10-06T08:21:21.403Z,74.10
2018-10-06T08:23:55.558Z,73.20
2018-10-06T08:26:29.242Z,73.20
2018-10-06T08:29:02.548Z,73.10
2018-10-06T08:31:38.674Z,72.90
2018-10-06T08:34:12.851Z,72.50
2018-10-06T08:36:46.625Z,72.40
2018-10-06T08:39:20.799Z,72.00
2018-10-06T08:41:54.745Z,72.10
2018-10-06T08:44:28.522Z,72.40
2018-10-06T08:47:02.472Z,72.60
2018-10-06T08:49:36.034Z,72.50
2018-10-06T08:52:10.009Z,72.70
2018-10-06T08:54:43.439Z,72.80
2018-10-06T08:57:17.274Z,72.80
2018-10-06T08:59:50.571Z,72.80
2018-10-06T09:02:24.647Z,73.00
2018-10-06T09:04:58.404Z,73.20
2018-10-06T09:07:33.455Z,73.50
2018-10-06T09:10:07.118Z,73.50
2018-10-06T09:12:41.104Z,73.50
2018-10-06T09:15:15.987Z,73.70
2018-10-06T09:17:51.355Z,73.80
2018-10-06T09:20:24.744Z,74.10
2018-10-06T09:22:58.664Z,74.30
2018-10-06T09:25:36.042Z,74.60
2018-10-06T09:28:09.713Z,74.70
2018-10-06T09:35:44.860Z,75.10
2018-10-06T09:38:18.860Z,75.80
2018-10-06T09:40:52.376Z,76.40
2018-10-06T09:43:26.038Z,76.60
2018-10-06T09:45:59.574Z,77.00
2018-10-06T09:48:33.470Z,77.10
2018-10-06T09:53:58.328Z,77.50
2018-10-06T09:56:34.397Z,77.60
2018-10-06T09:59:08.029Z,77.50
2018-10-06T10:01:45.500Z,77.30
2018-10-06T10:04:20.037Z,77.20
2018-10-06T10:06:53.866Z,78.00
2018-10-06T10:09:29.555Z,77.00
2018-10-06T10:12:03.702Z,77.20
2018-10-06T10:14:37.302Z,77.30
2018-10-06T10:17:11.205Z,77.30
2018-10-06T10:19:44.841Z,77.30
2018-10-06T10:22:19.192Z,77.40
2018-10-06T10:24:53.204Z,77.40
2018-10-06T10:27:26.922Z,77.40
2018-10-06T10:30:00.755Z,77.70
2018-10-06T10:32:34.469Z,77.80
2018-10-06T10:35:12.392Z,78.90
2018-10-06T10:37:46.090Z,78.30
2018-10-06T10:40:19.774Z,78.40
2018-10-06T10:42:53.359Z,78.50
2018-10-06T10:45:27.251Z,78.40
2018-10-06T10:48:00.787Z,78.60
2018-10-06T10:50:34.626Z,78.70
2018-10-06T10:53:08.770Z,78.60
2018-10-06T10:55:42.206Z,78.80
2018-10-06T10:58:16.780Z,79.10
2018-10-06T11:00:52.973Z,79.90
2018-10-06T11:03:26.912Z,79.00
2018-10-06T11:06:00.348Z,79.00
2018-10-06T11:08:34.186Z,79.10
2018-10-06T11:11:08.910Z,79.20
2018-10-06T11:13:43.126Z,79.10
2018-10-06T11:21:20.097Z,80.10
2018-10-06T11:27:37.118Z,79.60
2018-10-06T11:30:10.743Z,79.50
2018-10-06T11:35:51.524Z,79.60
2018-10-06T11:38:26.450Z,79.60
2018-10-06T11:41:00.230Z,79.40
2018-10-06T11:46:32.013Z,79.60
2018-10-06T11:49:10.065Z,79.50
2018-10-06T11:51:43.885Z,78.80
2018-10-06T11:54:17.993Z,79.50
2018-10-06T12:00:46.277Z,79.10
2018-10-06T12:03:25.285Z,78.90
2018-10-06T12:05:58.793Z,78.70
2018-10-06T12:08:32.774Z,78.90
2018-10-06T12:11:11.914Z,79.10
2018-10-06T12:13:51.847Z,79.40
2018-10-06T12:16:25.973Z,79.50
2018-10-06T12:18:59.775Z,79.70
2018-10-06T12:21:33.310Z,80.50
2018-10-06T12:24:07.304Z,79.70
2018-10-06T12:26:41.281Z,79.60
2018-10-06T12:29:15.114Z,79.80
2018-10-06T12:31:48.924Z,79.90
2018-10-06T12:34:22.777Z,80.00
2018-10-06T12:36:57.065Z,80.00
2018-10-06T12:39:31.122Z,80.00
2018-10-06T12:42:05.359Z,80.10
2018-10-06T12:44:39.284Z,80.30
2018-10-06T12:47:13.475Z,80.20
2018-10-06T12:49:47.471Z,80.30
2018-10-06T12:52:21.544Z,80.40
2018-10-06T12:54:56.644Z,80.30
2018-10-06T12:57:30.141Z,80.20
2018-10-06T13:00:03.849Z,80.20
2018-10-06T13:02:37.987Z,80.10
2018-10-06T13:05:11.838Z,80.20
2018-10-06T13:07:45.464Z,80.20
2018-10-06T13:10:19.160Z,80.30
2018-10-06T13:12:54.293Z,81.20
2018-10-06T13:15:28.169Z,80.50
2018-10-06T13:18:02.253Z,80.70
2018-10-06T13:20:36.194Z,80.80
2018-10-06T13:23:10.459Z,80.90
2018-10-06T13:25:44.518Z,80.90
2018-10-06T13:28:18.388Z,81.10
2018-10-06T13:30:52.012Z,81.20
2018-10-06T13:33:25.722Z,81.00
2018-10-06T13:35:59.742Z,81.10
2018-10-06T13:38:33.386Z,81.20
2018-10-06T13:41:07.156Z,81.50
2018-10-06T13:43:40.923Z,81.40
2018-10-06T13:46:14.988Z,81.40
2018-10-06T13:48:48.476Z,81.50
2018-10-06T13:51:22.804Z,81.60
2018-10-06T13:53:56.671Z,82.50
2018-10-06T13:56:30.462Z,81.60
2018-10-06T13:59:04.094Z,81.50
2018-10-06T14:01:37.711Z,81.60
2018-10-06T14:04:11.699Z,81.60
2018-10-06T14:06:45.646Z,81.70
2018-10-06T14:09:19.522Z,81.70
2018-10-06T14:11:53.967Z,81.90
2018-10-06T14:14:28.885Z,81.70
2018-10-06T14:17:03.038Z,81.80
2018-10-06T14:19:37.094Z,81.80
2018-10-06T14:22:10.808Z,81.70
2018-10-06T14:24:45.442Z,81.70
2018-10-06T14:27:19.419Z,81.70
2018-10-06T14:29:54.168Z,81.70
2018-10-06T14:32:28.231Z,81.70
2018-10-06T14:35:02.053Z,81.70
2018-10-06T14:37:36.268Z,81.80
2018-10-06T14:40:10.273Z,81.80
2018-10-06T14:42:44.403Z,81.80
2018-10-06T14:45:18.591Z,81.50
2018-10-06T14:47:53.097Z,81.40
2018-10-06T14:50:27.260Z,81.10
2018-10-06T14:53:01.259Z,81.10
2018-10-06T14:55:34.935Z,81.10
2018-10-06T14:58:08.458Z,81.30
2018-10-06T15:00:42.446Z,82.10
2018-10-06T15:03:16.170Z,81.30
2018-10-06T15:05:50.050Z,81.40
2018-10-06T15:08:23.467Z,81.50
2018-10-06T15:10:57.294Z,81.40
2018-10-06T15:13:31.023Z,82.30
2018-10-06T15:16:06.401Z,81.40
2018-10-06T15:18:39.975Z,81.40
2018-10-06T15:21:13.997Z,81.30
2018-10-06T15:23:47.826Z,81.20
2018-10-06T15:26:21.373Z,81.30
2018-10-06T15:28:55.142Z,81.50
2018-10-06T15:31:28.679Z,81.60
2018-10-06T15:34:04.254Z,81.70
2018-10-06T15:36:38.126Z,82.40
2018-10-06T15:39:12.461Z,81.50
2018-10-06T15:41:46.148Z,81.50
2018-10-06T15:44:20.229Z,81.40
2018-10-06T15:46:53.986Z,81.30
2018-10-06T15:49:28.125Z,81.00
2018-10-06T15:52:02.031Z,80.80
2018-10-06T15:54:35.636Z,80.70
2018-10-06T15:57:09.579Z,80.70
2018-10-06T15:59:43.270Z,81.10
2018-10-06T16:02:17.209Z,81.40
2018-10-06T16:04:50.805Z,80.50
2018-10-06T16:07:25.284Z,79.70
2018-10-06T16:09:59.142Z,79.90
2018-10-06T16:12:33.498Z,79.80
2018-10-06T16:15:07.226Z,79.80
2018-10-06T16:17:42.256Z,80.00
2018-10-06T16:20:16.222Z,80.20
2018-10-06T16:22:50.083Z,80.50
2018-10-06T16:25:24.032Z,80.20
2018-10-06T16:27:57.888Z,80.00
2018-10-06T16:30:31.960Z,79.50
2018-10-06T16:33:06.250Z,79.40
2018-10-06T16:35:40.385Z,79.30
2018-10-06T16:38:14.407Z,79.40
2018-10-06T16:40:48.484Z,79.60
2018-10-06T16:43:21.625Z,79.70
2018-10-06T16:45:55.900Z,79.80
2018-10-06T16:48:29.327Z,80.10
2018-10-06T16:51:03.485Z,80.10
2018-10-06T16:53:37.494Z,80.20
2018-10-06T16:56:11.867Z,80.30
2018-10-06T16:58:45.712Z,80.50
2018-10-06T17:01:19.561Z,80.40
2018-10-06T17:03:53.658Z,80.40
2018-10-06T17:06:27.831Z,80.50
2018-10-06T17:09:01.675Z,80.50
2018-10-06T17:11:35.695Z,80.60
2018-10-06T17:14:10.263Z,80.60
2018-10-06T17:16:43.861Z,80.80
2018-10-06T17:19:18.128Z,80.80
2018-10-06T17:21:51.592Z,81.00
2018-10-06T17:24:25.247Z,81.00
2018-10-06T17:26:59.165Z,81.00
2018-10-06T17:29:33.764Z,81.00
2018-10-06T17:32:07.758Z,80.80
2018-10-06T17:34:41.894Z,80.80
2018-10-06T17:37:16.036Z,80.70
2018-10-06T17:39:50.083Z,80.70
2018-10-06T17:42:23.957Z,80.70
2018-10-06T17:44:58.133Z,80.80
2018-10-06T17:47:32.318Z,80.90
2018-10-06T17:50:06.517Z,80.30
2018-10-06T17:52:40.480Z,81.90
2018-10-06T17:55:14.052Z,81.20
2018-10-06T17:57:48.124Z,81.20
2018-10-06T18:00:21.996Z,81.50
2018-10-06T18:02:56.059Z,81.20
2018-10-06T18:05:30.050Z,82.00
2018-10-06T18:08:03.848Z,81.20
2018-10-06T18:10:37.535Z,81.80
2018-10-06T18:13:11.496Z,81.10
2018-10-06T18:15:45.626Z,81.10
2018-10-06T18:18:19.468Z,81.20
2018-10-06T18:20:54.220Z,81.20
2018-10-06T18:23:28.075Z,81.20
2018-10-06T18:26:02.073Z,81.30
2018-10-06T18:28:36.014Z,81.20
2018-10-06T18:31:10.491Z,81.30
2018-10-06T18:33:44.194Z,81.20
2018-10-06T18:36:18.009Z,81.40
2018-10-06T18:38:51.883Z,81.40
2018-10-06T18:41:25.338Z,80.80
2018-10-06T18:43:59.562Z,80.30
2018-10-06T18:46:33.878Z,80.20
2018-10-06T18:49:07.790Z,80.30
2018-10-06T18:51:41.862Z,80.50
2018-10-06T18:54:15.477Z,80.70
2018-10-06T18:56:49.221Z,80.50
2018-10-06T18:59:23.761Z,80.50
2018-10-06T19:01:57.631Z,80.50
2018-10-06T19:04:31.399Z,80.50
2018-10-06T19:07:04.804Z,80.50
2018-10-06T19:09:38.727Z,80.60
2018-10-06T19:12:12.587Z,80.60
2018-10-06T19:14:46.235Z,80.50
2018-10-06T19:17:21.169Z,80.50
2018-10-06T19:19:54.904Z,80.50
2018-10-06T19:22:30.039Z,80.60
2018-10-06T19:25:03.650Z,80.70
2018-10-06T19:27:37.409Z,80.70
2018-10-06T19:30:11.681Z,80.90
2018-10-06T19:32:45.514Z,80.90
2018-10-06T19:35:19.276Z,80.80
2018-10-06T19:37:53.455Z,81.50
2018-10-06T19:40:28.085Z,80.70
2018-10-06T19:43:02.185Z,80.70
2018-10-06T19:45:36.307Z,80.70
2018-10-06T19:48:09.901Z,80.80
2018-10-06T19:50:44.058Z,80.80
2018-10-06T19:53:17.949Z,80.70
2018-10-06T19:55:52.107Z,80.40
2018-10-06T19:58:25.797Z,80.10
2018-10-06T20:00:59.893Z,80.10
2018-10-06T20:03:33.911Z,80.10
2018-10-06T20:06:07.588Z,80.20
2018-10-06T20:08:41.255Z,80.20
2018-10-06T20:11:14.748Z,80.30
2018-10-06T20:13:48.296Z,80.30
2018-10-06T20:16:22.096Z,80.60
2018-10-06T20:18:55.874Z,80.60
2018-10-06T20:21:29.975Z,80.60
2018-10-06T20:24:04.890Z,80.60
2018-10-06T20:26:38.786Z,80.60
2018-10-06T20:29:12.606Z,80.70
2018-10-06T20:31:46.521Z,80.70
2018-10-06T20:34:19.912Z,80.40
2018-10-06T20:36:54.611Z,80.40
2018-10-06T20:39:28.455Z,80.50
2018-10-06T20:42:02.154Z,80.60
2018-10-06T20:44:36.063Z,80.60
2018-10-06T20:47:10.049Z,80.70
2018-10-06T20:49:43.737Z,80.60
2018-10-06T20:52:17.979Z,80.60
2018-10-06T20:54:52.001Z,80.70
2018-10-06T20:57:25.892Z,80.80
2018-10-06T21:00:00.522Z,80.90
2018-10-06T21:02:34.626Z,81.00
2018-10-06T21:05:09.217Z,81.00
2018-10-06T21:07:43.139Z,81.00
2018-10-06T21:10:16.950Z,81.00
2018-10-06T21:12:50.963Z,81.00
2018-10-06T21:15:24.553Z,81.00
2018-10-06T21:17:58.559Z,81.00
2018-10-06T21:20:31.872Z,81.00
2018-10-06T21:23:07.278Z,81.10
2018-10-06T21:25:41.561Z,81.40
2018-10-06T21:28:15.512Z,81.40
2018-10-06T21:30:49.521Z,81.40
2018-10-06T21:33:23.350Z,81.60
2018-10-06T21:35:57.376Z,81.60
2018-10-06T21:38:31.294Z,81.60
2018-10-06T21:41:05.439Z,81.50
2018-10-06T21:43:39.340Z,81.60
2018-10-06T21:46:13.414Z,81.50
2018-10-06T21:48:47.284Z,81.60
2018-10-06T21:51:20.781Z,81.50
2018-10-06T21:53:54.488Z,81.50
2018-10-06T21:56:27.912Z,81.40
2018-10-06T21:59:01.989Z,81.40
2018-10-06T22:01:37.148Z,81.40
2018-10-06T22:04:11.154Z,81.40
2018-10-06T22:06:44.573Z,81.50
2018-10-06T22:09:18.640Z,81.80
2018-10-06T22:11:52.437Z,81.80
2018-10-06T22:14:26.482Z,81.80
2018-10-06T22:17:00.171Z,81.70
2018-10-06T22:19:34.032Z,81.70
2018-10-06T22:22:07.532Z,81.70
2018-10-06T22:24:40.626Z,82.00
2018-10-06T22:27:15.869Z,82.00
2018-10-06T22:29:49.776Z,82.00
2018-10-06T22:32:24.158Z,82.00
2018-10-06T22:34:57.991Z,81.90
2018-10-06T22:37:31.733Z,82.00
2018-10-06T22:40:05.597Z,82.10
2018-10-06T22:42:39.640Z,82.10
2018-10-06T22:45:13.543Z,82.30
2018-10-06T22:47:48.323Z,82.20
2018-10-06T22:50:21.997Z,82.40
2018-10-06T22:52:55.874Z,82.50
2018-10-06T22:55:30.321Z,82.50
2018-10-06T22:58:03.929Z,82.50
2018-10-06T23:00:39.234Z,82.50
2018-10-06T23:03:13.126Z,82.60
2018-10-06T23:05:47.191Z,82.60
2018-10-06T23:08:21.141Z,82.70
2018-10-06T23:10:55.227Z,82.80
2018-10-06T23:13:29.017Z,82.80
2018-10-06T23:16:02.337Z,82.80
2018-10-06T23:18:36.648Z,82.80
2018-10-06T23:21:10.531Z,83.00
2018-10-06T23:23:44.345Z,82.90
2018-10-06T23:26:18.614Z,82.90
2018-10-06T23:28:53.938Z,83.00
2018-10-06T23:31:27.668Z,83.00
2018-10-06T23:34:01.586Z,83.00
2018-10-06T23:36:35.359Z,83.10
2018-10-06T23:39:09.567Z,83.10
2018-10-06T23:41:42.907Z,83.10
2018-10-06T23:44:17.203Z,83.10
2018-10-06T23:46:50.785Z,83.10
2018-10-06T23:49:24.837Z,83.30
2018-10-06T23:51:58.311Z,83.30
2018-10-06T23:54:31.980Z,83.30
2018-10-06T23:57:05.564Z,83.50
2018-10-06T23:59:39.187Z,83.50
